createdAt,value
2023-04-18T00:01:38.489Z,14.97
2023-04-18T00:06:41.365Z,16.07
2023-04-18T00:11:44.526Z,15.08
2023-04-18T00:16:47.706Z,13.22
2023-04-18T00:21:54.099Z,14.52
2023-04-18T00:26:57.344Z,15.97
2023-04-18T00:32:00.185Z,15.66
2023-04-18T00:37:02.981Z,13.59
2023-04-18T00:42:06.209Z,14.05
2023-04-18T00:47:09.037Z,15.65
2023-04-18T00:52:13.202Z,16.16
2023-04-18T00:57:16.564Z,14.47
2023-04-18T01:02:19.989Z,13.00
2023-04-18T01:07:22.939Z,14.57
2023-04-18T01:12:25.838Z,15.93
2023-04-18T01:17:29.835Z,15.63
2023-04-18T01:22:33.586Z,13.66
2023-04-18T01:27:36.321Z,14.72
2023-04-18T01:32:39.212Z,15.96
2023-04-18T01:37:42.227Z,15.86
2023-04-18T01:42:45.093Z,13.78
2023-04-18T01:47:48.220Z,13.48
2023-04-18T01:52:51.058Z,15.27
2023-04-18T01:57:53.899Z,16.06
2023-04-18T02:02:59.831Z,14.63
2023-04-18T02:08:02.992Z,13.69
2023-04-18T02:13:06.882Z,15.40
2023-04-18T02:18:09.843Z,15.73
2023-04-18T02:23:12.713Z,13.74
2023-04-18T02:28:15.553Z,13.37
2023-04-18T02:33:18.373Z,15.30
2023-04-18T02:38:21.564Z,16.05
2023-04-18T02:43:24.354Z,14.46
2023-04-18T02:48:27.342Z,13.05
2023-04-18T02:53:30.308Z,14.60
2023-04-18T02:58:34.894Z,15.79
2023-04-18T03:03:38.102Z,14.47
2023-04-18T03:08:41.332Z,12.73
2023-04-18T03:13:44.169Z,13.48
2023-04-18T03:18:47.052Z,15.35
2023-04-18T03:23:50.249Z,15.95
2023-04-18T03:28:53.072Z,14.29
2023-04-18T03:33:55.888Z,13.95
2023-04-18T03:38:58.712Z,15.65
2023-04-18T03:44:01.558Z,15.91
2023-04-18T03:49:04.415Z,13.97
2023-04-18T03:54:07.219Z,14.08
2023-04-18T03:59:11.200Z,15.72
2023-04-18T04:04:15.787Z,15.28
2023-04-18T04:09:19.065Z,13.34
2023-04-18T04:14:22.932Z,14.32
2023-04-18T04:19:25.787Z,15.81
2023-04-18T04:24:29.263Z,15.69
2023-04-18T04:29:32.119Z,13.59
2023-04-18T04:34:35.751Z,13.14
2023-04-18T04:39:38.728Z,15.09
2023-04-18T04:44:43.046Z,16.07
2023-04-18T04:49:46.601Z,14.63
2023-04-18T04:54:51.879Z,12.92
2023-04-18T04:59:54.725Z,13.75
2023-04-18T05:04:57.538Z,15.53
2023-04-18T05:10:00.350Z,15.79
2023-04-18T05:15:03.634Z,13.75
2023-04-18T05:20:07.403Z,13.82
2023-04-18T05:25:10.617Z,15.53
2023-04-18T05:30:13.921Z,16.33
2023-04-18T05:35:16.827Z,15.48
2023-04-18T05:40:19.726Z,13.53
2023-04-18T05:45:22.515Z,13.76
2023-04-18T05:50:25.376Z,15.65
2023-04-18T05:55:28.345Z,16.40
2023-04-18T06:00:31.575Z,15.99
2023-04-18T06:05:34.770Z,13.93
2023-04-18T06:10:39.138Z,14.27
2023-04-18T06:15:42.332Z,16.03
2023-04-18T06:20:45.417Z,15.91
2023-04-18T06:25:48.794Z,13.88
2023-04-18T06:30:51.688Z,13.72
2023-04-18T06:35:54.614Z,15.68
2023-04-18T06:40:57.454Z,16.45
2023-04-18T06:46:01.243Z,15.10
2023-04-18T06:51:04.510Z,13.62
2023-04-18T06:56:07.869Z,14.97
2023-04-18T07:01:10.771Z,16.28
2023-04-18T07:06:13.668Z,16.42
2023-04-18T07:11:18.616Z,14.57
2023-04-18T07:16:21.663Z,14.28
2023-04-18T07:21:24.567Z,16.17
2023-04-18T07:26:27.751Z,16.86
2023-04-18T07:31:32.038Z,15.39
2023-04-18T07:36:35.045Z,14.71
2023-04-18T07:41:37.862Z,16.53
2023-04-18T07:46:40.935Z,16.42
2023-04-18T07:51:43.930Z,14.77
2023-04-18T07:56:46.851Z,14.39
2023-04-18T08:01:49.792Z,16.39
2023-04-18T08:06:52.995Z,16.23
2023-04-18T08:11:56.947Z,14.59
2023-04-18T08:16:59.806Z,14.59
2023-04-18T08:22:10.706Z,16.67
2023-04-18T08:27:13.648Z,17.19
2023-04-18T08:32:16.486Z,15.57
2023-04-18T08:37:19.422Z,14.49
2023-04-18T08:42:23.517Z,15.88
2023-04-18T08:47:30.373Z,17.52
2023-04-18T08:52:36.203Z,18.06
2023-04-18T08:57:39.978Z,16.53
2023-04-18T09:02:43.861Z,15.34
2023-04-18T09:07:49.639Z,15.69
2023-04-18T09:12:52.550Z,17.54
2023-04-18T09:18:02.705Z,16.34
2023-04-18T09:23:10.670Z,15.13
2023-04-18T09:28:28.899Z,15.40
2023-04-18T09:33:36.851Z,17.46
2023-04-18T09:38:41.314Z,16.59
2023-04-18T09:43:47.256Z,15.62
2023-04-18T09:48:50.331Z,14.96
2023-04-18T09:53:53.976Z,16.20
2023-04-18T09:59:08.450Z,17.52
2023-04-18T10:04:12.902Z,16.09
2023-04-18T10:09:16.484Z,15.22
2023-04-18T10:14:19.921Z,14.68
2023-04-18T10:19:26.102Z,15.73
2023-04-18T10:24:56.134Z,17.29
2023-04-18T10:29:59.121Z,15.98
2023-04-18T10:35:02.213Z,15.31
2023-04-18T10:40:07.641Z,14.86
2023-04-18T10:45:24.742Z,15.31
2023-04-18T10:50:27.569Z,16.94
2023-04-18T10:55:31.547Z,15.96
2023-04-18T11:00:34.766Z,15.34
2023-04-18T11:05:37.797Z,14.98
2023-04-18T11:10:43.764Z,14.74
2023-04-18T11:15:46.589Z,14.63
2023-04-18T11:20:51.686Z,14.52
2023-04-18T11:25:56.527Z,14.43
2023-04-18T11:31:02.939Z,14.36
2023-04-18T11:36:06.826Z,14.34
2023-04-18T11:41:16.421Z,14.37
2023-04-18T11:46:19.283Z,14.38
2023-04-18T11:51:38.833Z,14.37
2023-04-18T11:56:48.961Z,14.41
2023-04-18T12:02:14.795Z,14.49
2023-04-18T12:07:39.508Z,15.31
2023-04-18T12:12:49.959Z,18.00
2023-04-18T12:17:57.114Z,18.50
2023-04-18T12:23:00.055Z,17.11
2023-04-18T12:28:18.629Z,16.29
2023-04-18T12:33:21.670Z,15.78
2023-04-18T12:38:24.626Z,15.47
2023-04-18T12:43:27.550Z,15.14
2023-04-18T12:48:30.386Z,14.84
2023-04-18T12:53:33.209Z,14.58
2023-04-18T12:58:36.134Z,14.35
2023-04-18T13:03:39.317Z,14.47
2023-04-18T13:08:42.752Z,16.85
2023-04-18T13:13:45.575Z,18.24
2023-04-18T13:18:48.368Z,17.06
2023-04-18T13:23:51.300Z,16.07
2023-04-18T13:28:54.104Z,15.44
2023-04-18T13:33:57.632Z,14.99
2023-04-18T13:39:01.539Z,15.63
2023-04-18T13:44:04.696Z,18.02
2023-04-18T13:49:07.560Z,17.77
2023-04-18T13:54:10.746Z,16.47
2023-04-18T13:59:13.785Z,15.74
2023-04-18T14:04:17.423Z,15.26
2023-04-18T14:09:20.472Z,14.87
2023-04-18T14:14:23.545Z,15.80
2023-04-18T14:19:27.616Z,17.77
2023-04-18T14:24:30.444Z,16.69
2023-04-18T14:29:33.257Z,15.72
2023-04-18T14:34:37.380Z,15.14
2023-04-18T14:39:41.717Z,14.78
2023-04-18T14:44:44.573Z,14.50
2023-04-18T14:49:47.388Z,14.31
2023-04-18T14:54:50.180Z,14.20
2023-04-18T14:59:54.987Z,14.13
2023-04-18T15:04:59.552Z,14.09
2023-04-18T15:10:02.482Z,14.08
2023-04-18T15:15:06.952Z,14.08
2023-04-18T15:20:10.561Z,14.07
2023-04-18T15:25:16.460Z,14.08
2023-04-18T15:30:19.880Z,15.18
2023-04-18T15:35:23.132Z,17.15
2023-04-18T15:40:28.281Z,16.19
2023-04-18T15:45:31.834Z,15.49
2023-04-18T15:50:34.544Z,15.07
2023-04-18T15:55:37.463Z,14.77
2023-04-18T16:00:40.265Z,14.53
2023-04-18T16:05:43.329Z,14.33
2023-04-18T16:10:52.208Z,14.17
2023-04-18T16:15:55.100Z,15.63
2023-04-18T16:20:58.388Z,17.99
2023-04-18T16:26:01.255Z,18.23
2023-04-18T16:31:07.172Z,16.76
2023-04-18T16:36:12.476Z,15.85
2023-04-18T16:41:15.430Z,15.27
2023-04-18T16:46:19.158Z,14.82
2023-04-18T16:51:22.469Z,14.48
2023-04-18T16:56:25.346Z,14.20
2023-04-18T17:01:28.296Z,14.99
2023-04-18T17:06:32.644Z,17.48
2023-04-18T17:11:39.571Z,17.97
2023-04-18T17:16:43.066Z,16.54
2023-04-18T17:21:46.421Z,15.65
2023-04-18T17:26:49.565Z,15.07
2023-04-18T17:31:52.477Z,14.63
2023-04-18T17:36:55.329Z,14.27
2023-04-18T17:42:02.259Z,14.87
2023-04-18T17:47:07.354Z,17.22
2023-04-18T17:52:10.412Z,17.58
2023-04-18T17:57:13.239Z,16.18
2023-04-18T18:02:16.645Z,15.28
2023-04-18T18:07:19.527Z,14.70
2023-04-18T18:12:22.347Z,14.26
2023-04-18T18:17:25.195Z,14.36
2023-04-18T18:22:28.672Z,16.70
2023-04-18T18:27:31.842Z,18.17
2023-04-18T18:32:34.744Z,17.75
2023-04-18T18:37:37.661Z,16.25
2023-04-18T18:42:41.239Z,15.37
2023-04-18T18:47:43.935Z,14.76
2023-04-18T18:52:46.944Z,14.25
2023-04-18T18:57:49.837Z,13.85
2023-04-18T19:02:52.965Z,13.52
2023-04-18T19:07:56.022Z,14.29
2023-04-18T19:13:00.286Z,16.64
2023-04-18T19:18:03.212Z,17.74
2023-04-18T19:23:06.127Z,16.57
2023-04-18T19:28:09.036Z,15.38
2023-04-18T19:33:12.846Z,14.65
2023-04-18T19:38:15.761Z,14.12
2023-04-18T19:43:18.724Z,13.69
2023-04-18T19:48:21.564Z,13.35
2023-04-18T19:53:24.500Z,13.08
2023-04-18T19:58:39.791Z,13.91
2023-04-18T20:03:43.064Z,16.52
2023-04-18T20:08:46.291Z,16.85
2023-04-18T20:13:49.432Z,15.45
2023-04-18T20:18:54.811Z,14.62
2023-04-18T20:23:59.355Z,14.08
2023-04-18T20:29:03.780Z,13.68
2023-04-18T20:34:06.724Z,13.35
2023-04-18T20:39:09.681Z,13.07
2023-04-18T20:44:13.873Z,13.92
2023-04-18T20:49:16.946Z,16.43
2023-04-18T20:54:19.984Z,16.90
2023-04-18T20:59:22.838Z,15.47
2023-04-18T21:04:26.631Z,14.61
2023-04-18T21:09:36.437Z,14.05
2023-04-18T21:14:39.914Z,13.60
2023-04-18T21:19:51.100Z,13.22
2023-04-18T21:24:53.924Z,12.91
2023-04-18T21:29:57.028Z,14.65
2023-04-18T21:35:00.742Z,16.68
2023-04-18T21:40:04.665Z,16.33
2023-04-18T21:45:11.172Z,14.94
2023-04-18T21:50:14.211Z,14.07
2023-04-18T21:55:17.930Z,13.48
2023-04-18T22:00:20.740Z,13.02
2023-04-18T22:05:23.545Z,12.64
2023-04-18T22:10:26.412Z,13.47
2023-04-18T22:15:30.187Z,15.70
2023-04-18T22:20:33.820Z,16.11
2023-04-18T22:25:36.939Z,14.63
2023-04-18T22:30:39.956Z,13.61
2023-04-18T22:35:42.827Z,12.96
2023-04-18T22:40:45.646Z,12.47
2023-04-18T22:45:48.549Z,12.05
2023-04-18T22:50:51.526Z,12.08
2023-04-18T22:55:54.349Z,14.33
2023-04-18T23:00:57.281Z,15.64
2023-04-18T23:06:01.272Z,14.42
2023-04-18T23:11:04.130Z,13.29
2023-04-18T23:16:08.266Z,12.62
2023-04-18T23:21:11.187Z,12.18
2023-04-18T23:26:15.331Z,11.83
2023-04-18T23:31:19.234Z,11.53
2023-04-18T23:36:22.129Z,12.29
2023-04-18T23:41:25.012Z,14.74
2023-04-18T23:46:27.870Z,15.94
2023-04-18T23:51:31.172Z,15.00
2023-04-18T23:56:34.852Z,13.54
